createdAt,value
2022-12-23T00:03:16.828Z,2.08
2022-12-23T00:07:19.799Z,2.63
2022-12-23T00:11:24.116Z,2.35
2022-12-23T00:15:26.043Z,1.80
2022-12-23T00:19:30.290Z,1.98
2022-12-23T00:23:33.912Z,1.63
2022-12-23T00:27:38.236Z,1.67
2022-12-23T00:31:41.230Z,1.90
2022-12-23T00:35:44.396Z,1.63
2022-12-23T00:40:06.899Z,1.73
2022-12-23T00:44:11.504Z,1.92
2022-12-23T00:48:32.551Z,1.73
2022-12-23T00:52:35.692Z,2.08
2022-12-23T00:56:38.906Z,2.05
2022-12-23T01:01:01.007Z,2.58
2022-12-23T01:05:36.332Z,2.45
2022-12-23T01:09:39.315Z,2.72
2022-12-23T01:13:42.195Z,3.25
2022-12-23T01:17:46.514Z,3.13
2022-12-23T01:21:49.549Z,4.00
2022-12-23T01:25:58.519Z,2.90
2022-12-23T01:30:01.499Z,3.00
2022-12-23T01:34:05.833Z,2.83
2022-12-23T01:38:08.895Z,2.72
2022-12-23T01:42:31.789Z,2.65
2022-12-23T01:46:34.911Z,2.58
2022-12-23T01:50:45.112Z,2.78
2022-12-23T01:54:48.235Z,2.85
2022-12-23T01:58:55.900Z,2.70
2022-12-23T02:03:16.387Z,2.78
2022-12-23T02:07:39.039Z,2.83
2022-12-23T02:12:15.631Z,3.30
2022-12-23T02:16:18.780Z,2.80
2022-12-23T02:20:52.259Z,2.80
2022-12-23T02:25:32.796Z,3.13
2022-12-23T02:30:27.601Z,2.78
2022-12-23T02:34:41.746Z,2.97
2022-12-23T02:38:52.010Z,3.10
2022-12-23T02:43:03.316Z,2.83
2022-12-23T02:47:12.100Z,2.97
2022-12-23T02:51:17.525Z,2.97
2022-12-23T02:55:25.358Z,3.30
2022-12-23T02:59:32.049Z,3.33
2022-12-23T03:03:37.611Z,3.80
2022-12-23T03:07:44.698Z,3.08
2022-12-23T03:11:57.333Z,3.17
2022-12-23T03:16:12.788Z,3.97
2022-12-23T03:20:22.318Z,4.63
2022-12-23T03:24:37.998Z,4.80
2022-12-23T03:28:46.075Z,5.40
2022-12-23T03:32:52.546Z,5.82
2022-12-23T03:36:58.523Z,6.25
2022-12-23T03:41:07.605Z,5.93
2022-12-23T03:45:38.086Z,5.60
2022-12-23T03:49:42.870Z,6.10
2022-12-23T03:53:50.105Z,5.45
2022-12-23T03:58:02.377Z,6.78
2022-12-23T04:02:10.463Z,6.20
2022-12-23T04:06:17.120Z,6.60
2022-12-23T04:10:21.651Z,6.55
2022-12-23T04:14:25.956Z,7.05
2022-12-23T04:18:29.298Z,6.55
2022-12-23T04:22:32.178Z,6.50
2022-12-23T04:26:35.293Z,6.55
2022-12-23T04:30:40.043Z,6.40
2022-12-23T04:34:44.638Z,6.60
2022-12-23T04:38:47.867Z,6.32
2022-12-23T04:42:50.835Z,6.30
2022-12-23T04:46:55.213Z,5.90
2022-12-23T04:50:58.212Z,5.75
2022-12-23T04:55:01.160Z,5.90
2022-12-23T04:59:04.365Z,6.40
2022-12-23T05:03:09.187Z,5.63
2022-12-23T05:07:17.676Z,5.20
2022-12-23T05:11:20.974Z,5.93
2022-12-23T05:15:24.149Z,7.00
2022-12-23T05:19:28.482Z,6.32
2022-12-23T05:23:31.444Z,5.82
2022-12-23T05:27:34.677Z,6.55
2022-12-23T05:31:38.060Z,6.70
2022-12-23T05:35:42.667Z,6.57
2022-12-23T05:39:45.584Z,6.05
2022-12-23T05:43:48.501Z,6.55
2022-12-23T05:47:51.445Z,8.10
2022-12-23T05:51:56.347Z,7.10
2022-12-23T05:55:59.292Z,6.60
2022-12-23T06:00:02.196Z,6.18
2022-12-23T06:04:15.281Z,6.32
2022-12-23T06:08:19.671Z,6.95
2022-12-23T06:12:22.593Z,6.72
2022-12-23T06:16:25.608Z,7.65
2022-12-23T06:20:28.810Z,7.15
2022-12-23T06:24:33.138Z,6.88
2022-12-23T06:28:36.104Z,7.60
2022-12-23T06:32:39.301Z,7.38
2022-12-23T06:36:42.239Z,6.40
2022-12-23T06:40:46.500Z,7.90
2022-12-23T06:44:49.456Z,8.13
2022-12-23T06:48:52.386Z,8.27
2022-12-23T06:52:55.264Z,7.65
2022-12-23T06:57:00.164Z,6.65
2022-12-23T07:01:03.380Z,7.88
2022-12-23T07:05:07.319Z,7.68
2022-12-23T07:09:11.391Z,8.27
2022-12-23T07:13:15.989Z,8.63
2022-12-23T07:17:18.920Z,9.05
2022-12-23T07:21:29.041Z,8.98
2022-12-23T07:25:32.542Z,8.68
2022-12-23T07:29:36.837Z,9.43
2022-12-23T07:33:39.791Z,9.95
2022-12-23T07:37:42.693Z,9.23
2022-12-23T07:41:45.570Z,8.38
2022-12-23T07:45:57.369Z,9.25
2022-12-23T07:50:02.677Z,8.10
2022-12-23T07:54:05.737Z,8.70
2022-12-23T07:58:09.299Z,8.63
2022-12-23T08:02:13.789Z,7.97
2022-12-23T08:06:17.797Z,8.40
2022-12-23T08:10:20.794Z,7.57
2022-12-23T08:14:24.336Z,8.13
2022-12-23T08:18:31.574Z,7.30
2022-12-23T08:22:34.613Z,7.10
2022-12-23T08:26:37.497Z,8.00
2022-12-23T08:30:40.473Z,8.10
2022-12-23T08:34:45.074Z,7.72
2022-12-23T08:38:48.197Z,8.32
2022-12-23T08:42:51.126Z,7.43
2022-12-23T08:46:54.485Z,7.10
2022-12-23T08:50:58.792Z,8.40
2022-12-23T08:55:01.674Z,7.40
2022-12-23T08:59:05.311Z,7.43
2022-12-23T09:03:08.931Z,7.93
2022-12-23T09:07:13.936Z,7.50
2022-12-23T09:11:18.882Z,8.48
2022-12-23T09:15:21.810Z,8.75
2022-12-23T09:19:24.874Z,8.45
2022-12-23T09:23:29.350Z,8.52
2022-12-23T09:27:32.288Z,8.95
2022-12-23T09:31:37.804Z,8.45
2022-12-23T09:35:41.046Z,8.93
2022-12-23T09:39:45.385Z,8.20
2022-12-23T09:43:57.953Z,8.80
2022-12-23T09:48:01.673Z,7.47
2022-12-23T09:52:10.140Z,7.53
2022-12-23T09:56:19.643Z,8.27
2022-12-23T10:00:23.513Z,7.78
2022-12-23T10:04:38.899Z,8.02
2022-12-23T10:08:46.576Z,7.68
2022-12-23T10:12:53.580Z,7.93
2022-12-23T10:17:01.011Z,8.55
2022-12-23T10:21:08.737Z,8.80
2022-12-23T10:25:16.710Z,8.60
2022-12-23T10:29:23.068Z,8.20
2022-12-23T10:33:37.616Z,8.82
2022-12-23T10:37:48.965Z,8.85
2022-12-23T10:42:01.287Z,8.50
2022-12-23T10:46:16.753Z,8.25
2022-12-23T10:50:46.428Z,8.50
2022-12-23T10:54:49.568Z,8.88
2022-12-23T10:58:56.878Z,8.70
2022-12-23T11:03:13.990Z,9.02
2022-12-23T11:11:55.672Z,8.75
2022-12-23T11:16:23.777Z,8.35
2022-12-23T11:20:28.465Z,9.25
2022-12-23T11:24:39.592Z,8.35
2022-12-23T11:28:50.203Z,8.43
2022-12-23T11:32:53.721Z,8.10
2022-12-23T11:37:05.388Z,8.57
2022-12-23T11:41:10.365Z,8.05
2022-12-23T11:45:23.288Z,7.85
2022-12-23T11:49:28.030Z,8.07
2022-12-23T11:53:32.575Z,7.95
2022-12-23T11:57:40.484Z,8.35
2022-12-23T12:01:49.181Z,7.90
2022-12-23T12:05:55.804Z,7.90
2022-12-23T12:10:02.442Z,8.18
2022-12-23T12:14:08.561Z,8.15
2022-12-23T12:18:15.275Z,7.93
2022-12-23T12:22:28.113Z,8.18
2022-12-23T12:26:35.429Z,7.57
2022-12-23T12:30:44.918Z,8.30
2022-12-23T12:34:54.586Z,8.25
2022-12-23T12:39:00.001Z,9.38
2022-12-23T12:43:12.722Z,8.10
2022-12-23T12:47:52.231Z,8.82
2022-12-23T12:51:50.235Z,8.98
2022-12-23T12:55:59.178Z,8.13
2022-12-23T13:00:06.900Z,10.02
2022-12-23T13:04:43.767Z,8.43
2022-12-23T13:09:01.358Z,8.93
2022-12-23T13:13:17.178Z,8.20
2022-12-23T13:17:26.516Z,7.85
2022-12-23T13:21:34.193Z,8.20
2022-12-23T13:25:43.509Z,7.90
2022-12-23T13:29:58.585Z,8.60
2022-12-23T13:34:23.097Z,8.30
2022-12-23T13:38:37.735Z,7.20
2022-12-23T13:42:47.003Z,8.98
2022-12-23T13:46:57.326Z,8.50
2022-12-23T13:51:11.523Z,8.90
2022-12-23T13:55:26.562Z,8.77
2022-12-23T13:59:39.679Z,8.57
2022-12-23T14:03:42.838Z,8.23
2022-12-23T14:07:47.137Z,9.15
2022-12-23T14:11:53.341Z,8.52
2022-12-23T14:16:28.670Z,7.85
2022-12-23T14:20:46.018Z,9.02
2022-12-23T14:25:13.033Z,8.68
2022-12-23T14:29:35.013Z,8.95
2022-12-23T14:33:38.553Z,7.78
2022-12-23T14:37:41.864Z,8.80
2022-12-23T14:41:52.349Z,8.40
2022-12-23T14:45:56.787Z,8.50
2022-12-23T14:50:38.843Z,8.32
2022-12-23T14:54:50.302Z,8.07
2022-12-23T14:59:16.802Z,7.97
2022-12-23T15:03:20.931Z,8.90
2022-12-23T15:07:28.721Z,8.82
2022-12-23T15:11:34.125Z,8.27
2022-12-23T15:15:38.847Z,8.98
2022-12-23T15:19:46.998Z,9.80
2022-12-23T15:23:50.667Z,9.52
2022-12-23T15:28:01.211Z,10.65
2022-12-23T15:32:08.299Z,9.60
2022-12-23T15:36:12.000Z,9.60
2022-12-23T15:40:25.630Z,9.18
2022-12-23T15:44:36.466Z,8.25
2022-12-23T15:48:41.992Z,7.65
2022-12-23T15:52:48.432Z,8.40
2022-12-23T15:56:53.775Z,7.63
2022-12-23T16:00:58.692Z,7.97
2022-12-23T16:05:06.438Z,7.60
2022-12-23T16:09:31.243Z,7.80
2022-12-23T16:13:34.911Z,7.97
2022-12-23T16:17:38.021Z,8.00
2022-12-23T16:21:42.365Z,7.15
2022-12-23T16:25:50.496Z,7.30
2022-12-23T16:29:53.911Z,7.40
2022-12-23T16:33:59.284Z,7.85
2022-12-23T16:38:15.852Z,8.43
2022-12-23T16:42:19.947Z,7.18
2022-12-23T16:46:24.158Z,7.97
2022-12-23T16:50:28.328Z,8.45
2022-12-23T16:54:32.620Z,8.93
2022-12-23T16:58:35.598Z,8.38
2022-12-23T17:02:38.820Z,8.55
2022-12-23T17:06:42.717Z,9.05
2022-12-23T17:10:47.670Z,8.30
2022-12-23T17:14:50.860Z,8.55
2022-12-23T17:18:54.477Z,8.32
2022-12-23T17:23:00.478Z,8.48
2022-12-23T17:27:13.118Z,8.57
2022-12-23T17:31:26.898Z,8.35
2022-12-23T17:35:30.297Z,9.05
2022-12-23T17:39:33.791Z,8.10
2022-12-23T17:43:38.195Z,7.72
2022-12-23T17:47:41.148Z,8.02
2022-12-23T17:51:44.684Z,8.63
2022-12-23T17:55:48.119Z,8.57
2022-12-23T17:59:54.811Z,8.52
2022-12-23T18:03:58.927Z,8.02
2022-12-23T18:08:03.051Z,8.15
2022-12-23T18:12:06.990Z,8.75
2022-12-23T18:16:13.174Z,9.32
2022-12-23T18:20:18.132Z,8.93
2022-12-23T18:24:22.190Z,8.88
2022-12-23T18:28:25.927Z,8.45
2022-12-23T18:32:30.450Z,9.07
2022-12-23T18:36:34.337Z,9.48
2022-12-23T18:40:38.667Z,8.85
2022-12-23T18:44:42.742Z,7.97
2022-12-23T18:48:47.713Z,8.13
2022-12-23T18:52:51.217Z,8.50
2022-12-23T18:56:54.171Z,8.23
2022-12-23T19:00:57.640Z,7.85
2022-12-23T19:05:02.156Z,8.73
2022-12-23T19:09:05.630Z,8.52
2022-12-23T19:13:08.595Z,9.00
2022-12-23T19:17:11.580Z,8.68
2022-12-23T19:21:16.266Z,9.60
2022-12-23T19:25:20.226Z,8.55
2022-12-23T19:29:23.168Z,8.60
2022-12-23T19:33:26.188Z,8.98
2022-12-23T19:37:32.872Z,9.13
2022-12-23T19:41:35.777Z,10.63
2022-12-23T19:45:38.730Z,9.25
2022-12-23T19:49:41.698Z,8.57
2022-12-23T19:53:46.435Z,9.15
2022-12-23T19:57:49.465Z,9.80
2022-12-23T20:01:52.500Z,9.88
2022-12-23T20:05:55.722Z,9.18
2022-12-23T20:10:00.065Z,10.15
2022-12-23T20:14:03.349Z,10.57
2022-12-23T20:18:10.050Z,11.35
2022-12-23T20:22:13.597Z,10.13
2022-12-23T20:26:19.422Z,10.85
2022-12-23T20:30:22.607Z,10.10
2022-12-23T20:34:25.602Z,9.60
2022-12-23T20:38:28.561Z,9.75
2022-12-23T20:42:33.028Z,9.70
2022-12-23T20:46:36.079Z,11.07
2022-12-23T20:50:40.781Z,11.32
2022-12-23T20:54:43.859Z,10.07
2022-12-23T20:59:03.153Z,10.85
2022-12-23T21:03:10.443Z,10.55
2022-12-23T21:07:13.941Z,11.63
2022-12-23T21:11:17.739Z,10.40
2022-12-23T21:15:23.009Z,11.32
2022-12-23T21:19:27.133Z,10.07
2022-12-23T21:23:30.900Z,10.48
2022-12-23T21:27:33.861Z,10.55
2022-12-23T21:31:40.878Z,10.52
2022-12-23T21:35:44.042Z,10.82
2022-12-23T21:39:46.957Z,11.18
2022-12-23T21:43:50.455Z,11.60
2022-12-23T21:47:54.760Z,10.50
2022-12-23T21:51:57.867Z,10.32
2022-12-23T21:56:02.943Z,10.10
2022-12-23T22:00:07.055Z,10.30
2022-12-23T22:04:12.235Z,9.95
2022-12-23T22:08:15.161Z,9.80
2022-12-23T22:12:18.073Z,10.07
2022-12-23T22:16:23.027Z,9.25
2022-12-23T22:20:27.330Z,10.15
2022-12-23T22:24:30.326Z,10.23
2022-12-23T22:28:35.130Z,9.32
2022-12-23T22:32:42.365Z,9.55
2022-12-23T22:36:47.448Z,9.23
2022-12-23T22:40:50.552Z,9.18
2022-12-23T22:44:53.721Z,9.68
2022-12-23T22:48:56.972Z,8.95
2022-12-23T22:53:01.297Z,9.40
2022-12-23T22:57:04.598Z,8.23
2022-12-23T23:01:08.352Z,8.73
2022-12-23T23:05:13.208Z,9.95
2022-12-23T23:09:20.152Z,9.00
2022-12-23T23:13:23.068Z,9.70
2022-12-23T23:17:28.409Z,8.63
2022-12-23T23:21:31.607Z,9.60
2022-12-23T23:25:36.100Z,9.45
2022-12-23T23:29:39.364Z,8.52
2022-12-23T23:33:42.351Z,8.30
2022-12-23T23:37:45.275Z,8.32
2022-12-23T23:41:51.049Z,8.20
2022-12-23T23:45:54.204Z,8.80
2022-12-23T23:49:57.144Z,7.90
2022-12-23T23:54:00.114Z,7.43
2022-12-23T23:58:05.760Z,9.23
